sensor_id;sensor_type;location;lat;lon;timestamp;pressure;altitude;pressure_sealevel;temperature;humidity
79028;BME280;68427;48.476;19.102;2023-04-25T00:02:22;96384.28;;;9.56;87.78
79028;BME280;68427;48.476;19.102;2023-04-25T00:04:48;96378.47;;;9.54;87.02
79028;BME280;68427;48.476;19.102;2023-04-25T00:07:17;96392.78;;;9.51;87.01
79028;BME280;68427;48.476;19.102;2023-04-25T00:09:43;96385.56;;;9.47;86.42
79028;BME280;68427;48.476;19.102;2023-04-25T00:12:08;96383.59;;;9.42;86.65
79028;BME280;68427;48.476;19.102;2023-04-25T00:14:36;96387.00;;;9.43;86.62
79028;BME280;68427;48.476;19.102;2023-04-25T00:17:01;96375.84;;;9.36;87.14
79028;BME280;68427;48.476;19.102;2023-04-25T00:19:28;96380.47;;;9.34;87.45
79028;BME280;68427;48.476;19.102;2023-04-25T00:21:54;96377.84;;;9.34;86.86
79028;BME280;68427;48.476;19.102;2023-04-25T00:24:19;96371.25;;;9.31;86.90
79028;BME280;68427;48.476;19.102;2023-04-25T00:26:45;96365.00;;;9.32;86.22
79028;BME280;68427;48.476;19.102;2023-04-25T00:29:11;96367.00;;;9.30;86.51
79028;BME280;68427;48.476;19.102;2023-04-25T00:31:38;96354.38;;;9.27;86.97
79028;BME280;68427;48.476;19.102;2023-04-25T00:34:03;96360.25;;;9.22;86.61
79028;BME280;68427;48.476;19.102;2023-04-25T00:36:29;96366.09;;;9.18;86.99
79028;BME280;68427;48.476;19.102;2023-04-25T00:38:56;96366.09;;;9.18;86.67
79028;BME280;68427;48.476;19.102;2023-04-25T00:41:21;96368.56;;;9.13;86.62
79028;BME280;68427;48.476;19.102;2023-04-25T00:43:48;96357.75;;;9.09;85.96
79028;BME280;68427;48.476;19.102;2023-04-25T00:46:14;96362.78;;;9.11;86.77
79028;BME280;68427;48.476;19.102;2023-04-25T00:48:41;96360.53;;;9.14;86.39
79028;BME280;68427;48.476;19.102;2023-04-25T00:51:07;96365.94;;;9.13;86.50
79028;BME280;68427;48.476;19.102;2023-04-25T00:53:33;96362.38;;;9.07;86.45
79028;BME280;68427;48.476;19.102;2023-04-25T00:55:59;96360.84;;;8.99;85.87
79028;BME280;68427;48.476;19.102;2023-04-25T00:58:24;96364.41;;;9.05;86.32
79028;BME280;68427;48.476;19.102;2023-04-25T01:00:51;96361.44;;;9.01;85.99
79028;BME280;68427;48.476;19.102;2023-04-25T01:03:17;96370.94;;;8.96;86.31
79028;BME280;68427;48.476;19.102;2023-04-25T01:05:47;96356.47;;;8.93;86.20
79028;BME280;68427;48.476;19.102;2023-04-25T01:08:14;96359.28;;;8.92;86.44
79028;BME280;68427;48.476;19.102;2023-04-25T01:10:39;96358.16;;;8.81;86.94
79028;BME280;68427;48.476;19.102;2023-04-25T01:13:05;96364.38;;;8.80;86.17
79028;BME280;68427;48.476;19.102;2023-04-25T01:15:32;96364.19;;;8.81;86.02
79028;BME280;68427;48.476;19.102;2023-04-25T01:17:57;96358.97;;;8.81;85.85
79028;BME280;68427;48.476;19.102;2023-04-25T01:20:24;96362.38;;;8.82;85.40
79028;BME280;68427;48.476;19.102;2023-04-25T01:22:52;96363.16;;;8.82;85.45
79028;BME280;68427;48.476;19.102;2023-04-25T01:25:19;96370.63;;;8.79;85.70
79028;BME280;68427;48.476;19.102;2023-04-25T01:27:45;96356.78;;;8.78;85.48
79028;BME280;68427;48.476;19.102;2023-04-25T01:30:12;96367.00;;;8.80;85.32
79028;BME280;68427;48.476;19.102;2023-04-25T01:32:38;96357.78;;;8.77;85.97
79028;BME280;68427;48.476;19.102;2023-04-25T01:35:05;96361.78;;;8.80;86.72
79028;BME280;68427;48.476;19.102;2023-04-25T01:37:35;96365.59;;;8.77;85.87
79028;BME280;68427;48.476;19.102;2023-04-25T01:40:03;96367.22;;;8.78;85.91
79028;BME280;68427;48.476;19.102;2023-04-25T01:42:30;96363.41;;;8.81;84.49
79028;BME280;68427;48.476;19.102;2023-04-25T01:44:56;96360.97;;;8.79;84.74
79028;BME280;68427;48.476;19.102;2023-04-25T01:47:22;96360.63;;;8.76;85.08
79028;BME280;68427;48.476;19.102;2023-04-25T01:49:48;96363.81;;;8.78;84.64
79028;BME280;68427;48.476;19.102;2023-04-25T01:52:13;96351.59;;;8.72;84.63
79028;BME280;68427;48.476;19.102;2023-04-25T01:54:40;96361.22;;;8.78;84.29
79028;BME280;68427;48.476;19.102;2023-04-25T01:57:10;96359.00;;;8.75;85.36
79028;BME280;68427;48.476;19.102;2023-04-25T01:59:36;96359.16;;;8.80;84.73
79028;BME280;68427;48.476;19.102;2023-04-25T02:02:02;96350.34;;;8.81;85.37
79028;BME280;68427;48.476;19.102;2023-04-25T02:04:29;96357.16;;;8.82;85.25
79028;BME280;68427;48.476;19.102;2023-04-25T02:06:54;96351.50;;;8.85;85.46
79028;BME280;68427;48.476;19.102;2023-04-25T02:09:20;96349.53;;;8.80;85.81
79028;BME280;68427;48.476;19.102;2023-04-25T02:11:46;96356.19;;;8.76;86.54
79028;BME280;68427;48.476;19.102;2023-04-25T02:14:13;96351.41;;;8.73;86.86
79028;BME280;68427;48.476;19.102;2023-04-25T02:16:39;96346.81;;;8.69;86.19
79028;BME280;68427;48.476;19.102;2023-04-25T02:19:05;96344.81;;;8.64;87.28
79028;BME280;68427;48.476;19.102;2023-04-25T02:21:31;96348.22;;;8.64;87.05
79028;BME280;68427;48.476;19.102;2023-04-25T02:23:57;96350.84;;;8.64;87.41
79028;BME280;68427;48.476;19.102;2023-04-25T02:26:23;96347.44;;;8.64;86.43
79028;BME280;68427;48.476;19.102;2023-04-25T02:28:49;96348.22;;;8.64;86.62
79028;BME280;68427;48.476;19.102;2023-04-25T02:31:16;96352.28;;;8.60;87.62
79028;BME280;68427;48.476;19.102;2023-04-25T02:33:42;96356.69;;;8.60;87.25
79028;BME280;68427;48.476;19.102;2023-04-25T02:36:08;96351.88;;;8.57;86.76
79028;BME280;68427;48.476;19.102;2023-04-25T02:38:34;96354.72;;;8.55;87.58
79028;BME280;68427;48.476;19.102;2023-04-25T02:41:00;96356.69;;;8.60;87.77
79028;BME280;68427;48.476;19.102;2023-04-25T02:43:26;96350.66;;;8.59;87.72
79028;BME280;68427;48.476;19.102;2023-04-25T02:45:51;96346.25;;;8.60;87.34
79028;BME280;68427;48.476;19.102;2023-04-25T02:48:18;96356.91;;;8.58;87.18
79028;BME280;68427;48.476;19.102;2023-04-25T02:50:44;96350.72;;;8.53;87.43
79028;BME280;68427;48.476;19.102;2023-04-25T02:53:17;96348.94;;;8.47;87.21
79028;BME280;68427;48.476;19.102;2023-04-25T02:55:42;96345.72;;;8.44;87.61
79028;BME280;68427;48.476;19.102;2023-04-25T02:58:08;96349.97;;;8.46;87.54
79028;BME280;68427;48.476;19.102;2023-04-25T03:00:34;96346.94;;;8.42;87.01
79028;BME280;68427;48.476;19.102;2023-04-25T03:03:00;96348.78;;;8.41;87.89
79028;BME280;68427;48.476;19.102;2023-04-25T03:05:27;96346.53;;;8.45;87.34
79028;BME280;68427;48.476;19.102;2023-04-25T03:07:53;96344.50;;;8.47;86.96
79028;BME280;68427;48.476;19.102;2023-04-25T03:10:18;96341.91;;;8.47;86.87
79028;BME280;68427;48.476;19.102;2023-04-25T03:12:44;96338.69;;;8.45;87.68
79028;BME280;68427;48.476;19.102;2023-04-25T03:15:10;96339.91;;;8.42;87.23
79028;BME280;68427;48.476;19.102;2023-04-25T03:17:35;96336.91;;;8.39;87.90
79028;BME280;68427;48.476;19.102;2023-04-25T03:20:01;96341.34;;;8.38;87.76
79028;BME280;68427;48.476;19.102;2023-04-25T03:22:32;96337.75;;;8.33;87.92
79028;BME280;68427;48.476;19.102;2023-04-25T03:24:57;96337.97;;;8.31;87.74
79028;BME280;68427;48.476;19.102;2023-04-25T03:27:23;96338.56;;;8.33;87.45
79028;BME280;68427;48.476;19.102;2023-04-25T03:29:49;96342.38;;;8.31;87.52
79028;BME280;68427;48.476;19.102;2023-04-25T03:32:15;96343.59;;;8.28;87.40
79028;BME280;68427;48.476;19.102;2023-04-25T03:34:40;96342.56;;;8.29;87.82
79028;BME280;68427;48.476;19.102;2023-04-25T03:37:06;96341.97;;;8.27;86.99
79028;BME280;68427;48.476;19.102;2023-04-25T03:39:33;96341.59;;;8.23;87.41
79028;BME280;68427;48.476;19.102;2023-04-25T03:41:59;96340.81;;;8.23;87.43
79028;BME280;68427;48.476;19.102;2023-04-25T03:44:25;96343.44;;;8.23;86.88
79028;BME280;68427;48.476;19.102;2023-04-25T03:46:50;96349.44;;;8.23;86.90
79028;BME280;68427;48.476;19.102;2023-04-25T03:49:16;96343.63;;;8.21;87.51
79028;BME280;68427;48.476;19.102;2023-04-25T03:51:49;96345.44;;;8.21;87.27
79028;BME280;68427;48.476;19.102;2023-04-25T03:54:14;96342.81;;;8.21;88.05
79028;BME280;68427;48.476;19.102;2023-04-25T03:56:42;96346.44;;;8.20;87.33
79028;BME280;68427;48.476;19.102;2023-04-25T03:59:07;96346.66;;;8.18;87.59
79028;BME280;68427;48.476;19.102;2023-04-25T04:01:33;96352.84;;;8.17;87.04
79028;BME280;68427;48.476;19.102;2023-04-25T04:03:59;96349.25;;;8.18;87.85
79028;BME280;68427;48.476;19.102;2023-04-25T04:06:25;96350.84;;;8.19;87.19
79028;BME280;68427;48.476;19.102;2023-04-25T04:08:51;96349.63;;;8.22;86.70
79028;BME280;68427;48.476;19.102;2023-04-25T04:11:16;96353.47;;;8.19;86.99
79028;BME280;68427;48.476;19.102;2023-04-25T04:13:43;96345.84;;;8.18;86.85
79028;BME280;68427;48.476;19.102;2023-04-25T04:16:09;96358.91;;;8.11;87.39
79028;BME280;68427;48.476;19.102;2023-04-25T04:18:35;96357.72;;;8.07;87.36
79028;BME280;68427;48.476;19.102;2023-04-25T04:21:01;96364.50;;;8.15;86.91
79028;BME280;68427;48.476;19.102;2023-04-25T04:23:34;96357.09;;;8.18;87.15
79028;BME280;68427;48.476;19.102;2023-04-25T04:26:07;96363.09;;;8.19;86.13
79028;BME280;68427;48.476;19.102;2023-04-25T04:28:40;96355.47;;;8.17;86.91
79028;BME280;68427;48.476;19.102;2023-04-25T04:31:07;96370.38;;;8.10;87.35
79028;BME280;68427;48.476;19.102;2023-04-25T04:33:34;96364.31;;;8.10;87.62
79028;BME280;68427;48.476;19.102;2023-04-25T04:36:00;96369.94;;;8.13;87.06
79028;BME280;68427;48.476;19.102;2023-04-25T04:38:28;96375.75;;;8.15;87.28
79028;BME280;68427;48.476;19.102;2023-04-25T04:40:54;96370.94;;;8.12;86.59
79028;BME280;68427;48.476;19.102;2023-04-25T04:43:20;96376.16;;;8.12;86.49
79028;BME280;68427;48.476;19.102;2023-04-25T04:45:45;96371.16;;;8.11;87.05
79028;BME280;68427;48.476;19.102;2023-04-25T04:48:12;96369.34;;;8.18;86.56
79028;BME280;68427;48.476;19.102;2023-04-25T04:50:39;96382.75;;;8.15;86.80
79028;BME280;68427;48.476;19.102;2023-04-25T04:53:05;96375.34;;;8.18;86.90
79028;BME280;68427;48.476;19.102;2023-04-25T04:55:31;96378.16;;;8.17;87.71
79028;BME280;68427;48.476;19.102;2023-04-25T04:57:57;96382.38;;;8.18;87.44
79028;BME280;68427;48.476;19.102;2023-04-25T05:00:22;96384.56;;;8.21;86.97
79028;BME280;68427;48.476;19.102;2023-04-25T05:02:48;96385.94;;;8.23;86.07
79028;BME280;68427;48.476;19.102;2023-04-25T05:05:15;96380.94;;;8.22;86.48
79028;BME280;68427;48.476;19.102;2023-04-25T05:07:41;96393.34;;;8.27;86.66
79028;BME280;68427;48.476;19.102;2023-04-25T05:10:08;96381.53;;;8.24;86.19
79028;BME280;68427;48.476;19.102;2023-04-25T05:12:33;96379.94;;;8.23;86.05
79028;BME280;68427;48.476;19.102;2023-04-25T05:14:59;96395.19;;;8.19;86.61
79028;BME280;68427;48.476;19.102;2023-04-25T05:17:25;96389.78;;;8.21;87.00
79028;BME280;68427;48.476;19.102;2023-04-25T05:19:51;96392.56;;;8.26;87.30
79028;BME280;68427;48.476;19.102;2023-04-25T05:22:18;96388.53;;;8.30;86.41
79028;BME280;68427;48.476;19.102;2023-04-25T05:24:44;96385.28;;;8.35;86.26
79028;BME280;68427;48.476;19.102;2023-04-25T05:27:09;96388.94;;;8.40;86.32
79028;BME280;68427;48.476;19.102;2023-04-25T05:29:35;96386.09;;;8.42;86.34
79028;BME280;68427;48.476;19.102;2023-04-25T05:32:02;96387.06;;;8.48;86.01
79028;BME280;68427;48.476;19.102;2023-04-25T05:34:27;96386.88;;;8.42;87.01
79028;BME280;68427;48.476;19.102;2023-04-25T05:36:53;96390.84;;;8.58;85.93
79028;BME280;68427;48.476;19.102;2023-04-25T05:39:20;96386.22;;;8.60;85.95
79028;BME280;68427;48.476;19.102;2023-04-25T05:41:46;96383.38;;;8.62;86.62
79028;BME280;68427;48.476;19.102;2023-04-25T05:44:12;96379.78;;;8.63;86.63
79028;BME280;68427;48.476;19.102;2023-04-25T05:46:37;96386.56;;;8.71;86.71
79028;BME280;68427;48.476;19.102;2023-04-25T05:49:03;96379.13;;;8.68;86.09
79028;BME280;68427;48.476;19.102;2023-04-25T05:51:29;96378.91;;;8.69;85.97
79028;BME280;68427;48.476;19.102;2023-04-25T05:53:54;96393.09;;;8.80;85.15
79028;BME280;68427;48.476;19.102;2023-04-25T05:56:21;96392.91;;;8.81;84.92
79028;BME280;68427;48.476;19.102;2023-04-25T05:58:47;96396.16;;;8.77;85.54
79028;BME280;68427;48.476;19.102;2023-04-25T06:01:13;96384.72;;;8.78;85.37
79028;BME280;68427;48.476;19.102;2023-04-25T06:03:39;96391.88;;;8.82;85.36
79028;BME280;68427;48.476;19.102;2023-04-25T06:06:08;96386.03;;;8.87;84.66
79028;BME280;68427;48.476;19.102;2023-04-25T06:08:34;96392.66;;;8.90;84.91
79028;BME280;68427;48.476;19.102;2023-04-25T06:11:00;96403.94;;;8.83;84.32
79028;BME280;68427;48.476;19.102;2023-04-25T06:13:27;96395.31;;;8.83;84.44
79028;BME280;68427;48.476;19.102;2023-04-25T06:15:53;96401.09;;;8.85;84.22
79028;BME280;68427;48.476;19.102;2023-04-25T06:18:18;96399.72;;;8.82;84.07
79028;BME280;68427;48.476;19.102;2023-04-25T06:20:44;96398.72;;;8.83;83.56
79028;BME280;68427;48.476;19.102;2023-04-25T06:23:10;96402.31;;;8.82;83.45
79028;BME280;68427;48.476;19.102;2023-04-25T06:25:36;96393.44;;;8.90;83.92
79028;BME280;68427;48.476;19.102;2023-04-25T06:28:01;96400.31;;;8.84;83.50
79028;BME280;68427;48.476;19.102;2023-04-25T06:30:28;96404.53;;;8.85;83.68
79028;BME280;68427;48.476;19.102;2023-04-25T06:32:55;96400.13;;;8.86;83.07
79028;BME280;68427;48.476;19.102;2023-04-25T06:35:21;96409.53;;;8.87;82.77
79028;BME280;68427;48.476;19.102;2023-04-25T06:37:46;96402.28;;;8.89;82.80
79028;BME280;68427;48.476;19.102;2023-04-25T06:40:12;96400.13;;;8.86;82.20
79028;BME280;68427;48.476;19.102;2023-04-25T06:42:38;96405.97;;;8.81;82.12
79028;BME280;68427;48.476;19.102;2023-04-25T06:45:04;96409.16;;;8.83;83.04
79028;BME280;68427;48.476;19.102;2023-04-25T06:47:31;96411.56;;;8.85;83.93
79028;BME280;68427;48.476;19.102;2023-04-25T06:49:57;96411.97;;;8.82;83.44
79028;BME280;68427;48.476;19.102;2023-04-25T06:52:23;96416.16;;;8.90;83.45
79028;BME280;68427;48.476;19.102;2023-04-25T06:54:49;96408.06;;;8.98;82.62
79028;BME280;68427;48.476;19.102;2023-04-25T06:57:14;96411.81;;;9.08;82.66
79028;BME280;68427;48.476;19.102;2023-04-25T06:59:40;96414.44;;;9.08;82.88
79028;BME280;68427;48.476;19.102;2023-04-25T07:02:06;96412.50;;;9.22;82.64
79028;BME280;68427;48.476;19.102;2023-04-25T07:04:33;96417.50;;;9.30;81.66
79028;BME280;68427;48.476;19.102;2023-04-25T07:06:58;96402.75;;;9.36;81.37
79028;BME280;68427;48.476;19.102;2023-04-25T07:09:26;96409.56;;;9.37;81.96
79028;BME280;68427;48.476;19.102;2023-04-25T07:11:51;96414.97;;;9.42;82.16
79028;BME280;68427;48.476;19.102;2023-04-25T07:14:17;96409.88;;;9.47;81.62
79028;BME280;68427;48.476;19.102;2023-04-25T07:16:43;96412.66;;;9.52;81.18
79028;BME280;68427;48.476;19.102;2023-04-25T07:19:09;96413.69;;;9.51;80.57
79028;BME280;68427;48.476;19.102;2023-04-25T07:21:36;96415.50;;;9.51;81.53
79028;BME280;68427;48.476;19.102;2023-04-25T07:24:02;96418.28;;;9.56;81.46
79028;BME280;68427;48.476;19.102;2023-04-25T07:26:27;96416.66;;;9.55;81.03
79028;BME280;68427;48.476;19.102;2023-04-25T07:28:53;96413.47;;;9.53;81.11
79028;BME280;68427;48.476;19.102;2023-04-25T07:31:20;96421.97;;;9.48;80.13
79028;BME280;68427;48.476;19.102;2023-04-25T07:33:45;96425.22;;;9.44;80.97
79028;BME280;68427;48.476;19.102;2023-04-25T07:36:11;96423.97;;;9.46;80.44
79028;BME280;68427;48.476;19.102;2023-04-25T07:38:39;96423.59;;;9.43;80.28
79028;BME280;68427;48.476;19.102;2023-04-25T07:41:05;96425.81;;;9.46;79.92
79028;BME280;68427;48.476;19.102;2023-04-25T07:43:30;96424.03;;;9.40;80.54
79028;BME280;68427;48.476;19.102;2023-04-25T07:45:56;96421.41;;;9.40;80.62
79028;BME280;68427;48.476;19.102;2023-04-25T07:48:22;96428.97;;;9.23;79.82
79028;BME280;68427;48.476;19.102;2023-04-25T07:50:48;96432.78;;;9.27;80.67
79028;BME280;68427;48.476;19.102;2023-04-25T07:53:14;96429.56;;;9.25;80.75
79028;BME280;68427;48.476;19.102;2023-04-25T07:55:41;96421.97;;;9.23;79.68
79028;BME280;68427;48.476;19.102;2023-04-25T07:58:07;96419.34;;;9.23;80.48
79028;BME280;68427;48.476;19.102;2023-04-25T08:00:33;96434.19;;;9.23;80.03
79028;BME280;68427;48.476;19.102;2023-04-25T08:02:59;96428.59;;;9.19;80.75
79028;BME280;68427;48.476;19.102;2023-04-25T08:05:25;96431.94;;;9.33;80.27
79028;BME280;68427;48.476;19.102;2023-04-25T08:07:50;96428.41;;;9.21;80.77
79028;BME280;68427;48.476;19.102;2023-04-25T08:10:16;96429.16;;;9.28;81.71
79028;BME280;68427;48.476;19.102;2023-04-25T08:12:43;96433.84;;;9.44;80.44
79028;BME280;68427;48.476;19.102;2023-04-25T08:15:10;96433.31;;;9.61;80.67
79028;BME280;68427;48.476;19.102;2023-04-25T08:17:35;96428.88;;;9.61;79.78
79028;BME280;68427;48.476;19.102;2023-04-25T08:20:01;96436.50;;;9.63;78.89
79028;BME280;68427;48.476;19.102;2023-04-25T08:22:30;96440.81;;;9.76;79.26
79028;BME280;68427;48.476;19.102;2023-04-25T08:24:57;96443.00;;;9.79;79.46
79028;BME280;68427;48.476;19.102;2023-04-25T08:27:22;96445.44;;;9.99;78.60
79028;BME280;68427;48.476;19.102;2023-04-25T08:29:50;96453.28;;;9.99;78.97
79028;BME280;68427;48.476;19.102;2023-04-25T08:32:16;96446.22;;;10.17;78.09
79028;BME280;68427;48.476;19.102;2023-04-25T08:34:42;96447.94;;;10.30;78.55
79028;BME280;68427;48.476;19.102;2023-04-25T08:37:09;96451.84;;;10.40;77.82
79028;BME280;68427;48.476;19.102;2023-04-25T08:39:35;96453.16;;;10.49;78.02
79028;BME280;68427;48.476;19.102;2023-04-25T08:42:02;96460.25;;;10.60;76.46
79028;BME280;68427;48.476;19.102;2023-04-25T08:44:33;96456.06;;;10.59;75.71
79028;BME280;68427;48.476;19.102;2023-04-25T08:47:02;96456.72;;;10.54;76.67
79028;BME280;68427;48.476;19.102;2023-04-25T08:49:29;96458.03;;;10.64;76.35
79028;BME280;68427;48.476;19.102;2023-04-25T08:51:59;96456.06;;;10.59;74.21
79028;BME280;68427;48.476;19.102;2023-04-25T08:54:27;96461.88;;;10.61;73.85
79028;BME280;68427;48.476;19.102;2023-04-25T08:56:55;96468.84;;;10.67;73.39
79028;BME280;68427;48.476;19.102;2023-04-25T08:59:23;96460.06;;;10.43;74.05
79028;BME280;68427;48.476;19.102;2023-04-25T09:01:49;96461.16;;;10.54;74.89
79028;BME280;68427;48.476;19.102;2023-04-25T09:04:17;96464.56;;;10.54;74.63
79028;BME280;68427;48.476;19.102;2023-04-25T09:06:43;96474.53;;;10.64;75.20
79028;BME280;68427;48.476;19.102;2023-04-25T09:09:09;96465.88;;;10.64;76.05
79028;BME280;68427;48.476;19.102;2023-04-25T09:11:36;96471.66;;;10.66;74.80
79028;BME280;68427;48.476;19.102;2023-04-25T09:14:13;96473.81;;;10.57;75.85
79028;BME280;68427;48.476;19.102;2023-04-25T09:16:58;96476.50;;;10.69;75.32
79028;BME280;68427;48.476;19.102;2023-04-25T09:19:30;96472.25;;;10.68;75.12
79028;BME280;68427;48.476;19.102;2023-04-25T09:21:57;96473.81;;;10.57;75.77
79028;BME280;68427;48.476;19.102;2023-04-25T09:24:33;96480.50;;;10.53;74.95
79028;BME280;68427;48.476;19.102;2023-04-25T09:27:00;96480.78;;;10.45;75.53
79028;BME280;68427;48.476;19.102;2023-04-25T09:29:30;96483.03;;;10.59;76.03
79028;BME280;68427;48.476;19.102;2023-04-25T09:32:19;96478.81;;;10.77;74.71
79028;BME280;68427;48.476;19.102;2023-04-25T09:34:48;96482.16;;;10.96;75.74
79028;BME280;68427;48.476;19.102;2023-04-25T09:37:18;96474.69;;;10.99;75.97
79028;BME280;68427;48.476;19.102;2023-04-25T09:39:45;96475.00;;;10.91;72.88
79028;BME280;68427;48.476;19.102;2023-04-25T09:42:12;96474.03;;;11.04;73.69
79028;BME280;68427;48.476;19.102;2023-04-25T09:44:42;96478.28;;;11.17;73.29
79028;BME280;68427;48.476;19.102;2023-04-25T09:47:10;96479.47;;;11.44;72.67
79028;BME280;68427;48.476;19.102;2023-04-25T09:49:39;96466.63;;;11.66;73.25
79028;BME280;68427;48.476;19.102;2023-04-25T09:52:07;96465.63;;;12.15;73.28
79028;BME280;68427;48.476;19.102;2023-04-25T09:54:33;96472.31;;;12.46;73.62
79028;BME280;68427;48.476;19.102;2023-04-25T09:57:06;96462.63;;;12.75;72.81
79028;BME280;68427;48.476;19.102;2023-04-25T09:59:36;96459.25;;;12.91;70.41
79028;BME280;68427;48.476;19.102;2023-04-25T10:02:04;96462.50;;;13.10;69.42
79028;BME280;68427;48.476;19.102;2023-04-25T10:04:34;96452.38;;;13.48;67.90
79028;BME280;68427;48.476;19.102;2023-04-25T10:07:01;96453.22;;;13.53;66.95
79028;BME280;68427;48.476;19.102;2023-04-25T10:09:32;96457.69;;;13.36;68.23
79028;BME280;68427;48.476;19.102;2023-04-25T10:11:59;96464.25;;;13.22;67.29
79028;BME280;68427;48.476;19.102;2023-04-25T10:14:26;96463.63;;;13.14;66.53
79028;BME280;68427;48.476;19.102;2023-04-25T10:16:52;96467.38;;;12.90;64.59
79028;BME280;68427;48.476;19.102;2023-04-25T10:19:19;96460.91;;;13.09;64.63
79028;BME280;68427;48.476;19.102;2023-04-25T10:21:50;96459.00;;;13.22;65.36
79028;BME280;68427;48.476;19.102;2023-04-25T10:24:31;96460.84;;;12.92;63.62
79028;BME280;68427;48.476;19.102;2023-04-25T10:26:57;96462.13;;;12.90;66.23
79028;BME280;68427;48.476;19.102;2023-04-25T10:29:25;96458.31;;;12.69;62.98
79028;BME280;68427;48.476;19.102;2023-04-25T10:31:51;96453.78;;;12.64;66.40
79028;BME280;68427;48.476;19.102;2023-04-25T10:34:17;96451.16;;;12.64;67.69
79028;BME280;68427;48.476;19.102;2023-04-25T10:36:43;96442.13;;;12.60;65.89
79028;BME280;68427;48.476;19.102;2023-04-25T10:39:21;96444.88;;;12.53;67.23
79028;BME280;68427;48.476;19.102;2023-04-25T10:41:53;96443.69;;;12.32;66.73
79028;BME280;68427;48.476;19.102;2023-04-25T10:44:20;96441.22;;;12.14;67.94
79028;BME280;68427;48.476;19.102;2023-04-25T10:46:46;96434.56;;;12.23;68.32
79028;BME280;68427;48.476;19.102;2023-04-25T10:49:29;96433.66;;;12.29;67.22
79028;BME280;68427;48.476;19.102;2023-04-25T10:52:24;96430.16;;;12.00;67.48
79028;BME280;68427;48.476;19.102;2023-04-25T10:54:51;96429.94;;;11.90;68.79
79028;BME280;68427;48.476;19.102;2023-04-25T10:57:29;96430.97;;;11.89;67.15
79028;BME280;68427;48.476;19.102;2023-04-25T10:59:59;96439.38;;;11.91;66.60
79028;BME280;68427;48.476;19.102;2023-04-25T11:02:26;96439.69;;;11.83;67.58
79028;BME280;68427;48.476;19.102;2023-04-25T11:04:54;96430.34;;;11.75;66.63
79028;BME280;68427;48.476;19.102;2023-04-25T11:07:26;96438.31;;;11.68;67.01
79028;BME280;68427;48.476;19.102;2023-04-25T11:09:54;96441.06;;;11.62;66.11
79028;BME280;68427;48.476;19.102;2023-04-25T11:12:20;96451.22;;;11.70;67.12
79028;BME280;68427;48.476;19.102;2023-04-25T11:14:47;96452.91;;;11.53;65.94
79028;BME280;68427;48.476;19.102;2023-04-25T11:17:13;96461.72;;;11.46;64.50
79028;BME280;68427;48.476;19.102;2023-04-25T11:19:38;96454.16;;;11.50;65.53
79028;BME280;68427;48.476;19.102;2023-04-25T11:22:04;96461.25;;;11.50;66.09
79028;BME280;68427;48.476;19.102;2023-04-25T11:24:32;96471.38;;;11.46;66.08
79028;BME280;68427;48.476;19.102;2023-04-25T11:27:00;96455.66;;;11.58;66.37
79028;BME280;68427;48.476;19.102;2023-04-25T11:29:28;96462.94;;;11.56;65.58
79028;BME280;68427;48.476;19.102;2023-04-25T11:31:55;96457.41;;;11.64;67.03
79028;BME280;68427;48.476;19.102;2023-04-25T11:34:25;96448.38;;;11.72;64.48
79028;BME280;68427;48.476;19.102;2023-04-25T11:36:51;96457.75;;;11.79;65.12
79028;BME280;68427;48.476;19.102;2023-04-25T11:39:20;96448.81;;;11.68;65.11
79028;BME280;68427;48.476;19.102;2023-04-25T11:41:47;96450.75;;;11.73;65.99
79028;BME280;68427;48.476;19.102;2023-04-25T11:44:15;96459.31;;;11.80;66.66
79028;BME280;68427;48.476;19.102;2023-04-25T11:46:42;96457.22;;;11.89;67.04
79028;BME280;68427;48.476;19.102;2023-04-25T11:49:09;96465.50;;;11.98;64.29
79028;BME280;68427;48.476;19.102;2023-04-25T11:51:38;96472.13;;;12.00;61.96
79028;BME280;68427;48.476;19.102;2023-04-25T11:54:04;96469.03;;;12.03;62.57
79028;BME280;68427;48.476;19.102;2023-04-25T11:56:30;96462.53;;;12.06;61.62
79028;BME280;68427;48.476;19.102;2023-04-25T11:58:57;96463.44;;;12.23;62.33
79028;BME280;68427;48.476;19.102;2023-04-25T12:01:28;96468.09;;;12.33;61.37
79028;BME280;68427;48.476;19.102;2023-04-25T12:03:54;96466.72;;;12.42;60.25
79028;BME280;68427;48.476;19.102;2023-04-25T12:06:21;96465.53;;;12.62;60.61
79028;BME280;68427;48.476;19.102;2023-04-25T12:09:00;96458.78;;;12.66;59.03
79028;BME280;68427;48.476;19.102;2023-04-25T12:11:25;96460.00;;;12.75;59.03
79028;BME280;68427;48.476;19.102;2023-04-25T12:13:51;96464.69;;;12.73;58.58
79028;BME280;68427;48.476;19.102;2023-04-25T12:16:18;96463.34;;;12.70;58.25
79028;BME280;68427;48.476;19.102;2023-04-25T12:18:44;96459.03;;;12.64;59.65
79028;BME280;68427;48.476;19.102;2023-04-25T12:21:10;96474.34;;;12.56;59.82
79028;BME280;68427;48.476;19.102;2023-04-25T12:23:38;96468.97;;;12.50;61.41
79028;BME280;68427;48.476;19.102;2023-04-25T12:26:05;96480.16;;;12.58;59.84
79028;BME280;68427;48.476;19.102;2023-04-25T12:28:32;96459.34;;;12.68;58.32
79028;BME280;68427;48.476;19.102;2023-04-25T12:30:59;96460.75;;;12.87;58.19
79028;BME280;68427;48.476;19.102;2023-04-25T12:33:26;96470.19;;;13.00;55.85
79028;BME280;68427;48.476;19.102;2023-04-25T12:35:52;96468.72;;;13.21;55.04
79028;BME280;68427;48.476;19.102;2023-04-25T12:38:22;96475.25;;;13.18;55.18
79028;BME280;68427;48.476;19.102;2023-04-25T12:40:49;96468.59;;;13.28;56.66
79028;BME280;68427;48.476;19.102;2023-04-25T12:43:15;96480.97;;;13.44;56.20
79028;BME280;68427;48.476;19.102;2023-04-25T12:45:41;96479.38;;;13.43;56.55
79028;BME280;68427;48.476;19.102;2023-04-25T12:48:07;96483.06;;;13.42;57.21
79028;BME280;68427;48.476;19.102;2023-04-25T12:50:32;96480.19;;;13.15;56.59
79028;BME280;68427;48.476;19.102;2023-04-25T12:52:58;96477.66;;;12.91;58.56
79028;BME280;68427;48.476;19.102;2023-04-25T12:55:24;96482.28;;;12.72;59.48
79028;BME280;68427;48.476;19.102;2023-04-25T12:57:51;96479.88;;;12.30;57.63